Time;durP1;ratioP1;P1;durP2;ratioP2;P2;SDS_P1;SDS_P2;PMS_P1;PMS_P2;Temp;Humidity;BMP_temperature;BMP_pressure;BME280_temperature;BME280_humidity;BME280_pressure;Samples;Min_cycle;Max_cycle;Signal;HPM_P1;HPM_P2
2023/08/03 00:01:24;;;;;;;11.35;4.35;;;16.30;99.90;;;;;;4937527;28;20408;-90
2023/08/03 00:03:50;;;;;;;11.13;5.07;;;16.00;99.90;;;;;;4952705;28;20474;-88
2023/08/03 00:06:15;;;;;;;8.33;4.17;;;16.00;99.90;;;;;;4953476;28;21038;-89
2023/08/03 00:08:41;;;;;;;8.20;3.80;;;16.00;99.90;;;;;;4936573;28;20428;-88
2023/08/03 00:11:06;;;;;;;10.47;3.67;;;16.00;99.90;;;;;;4936580;28;20494;-88
2023/08/03 00:13:32;;;;;;;10.90;4.13;;;16.10;99.90;;;;;;4936764;28;20420;-90
2023/08/03 00:15:58;;;;;;;7.47;4.10;;;16.10;99.90;;;;;;4952366;28;20420;-88
2023/08/03 00:18:24;;;;;;;11.35;4.88;;;16.20;99.90;;;;;;4936818;28;20416;-89
2023/08/03 00:20:50;;;;;;;7.82;3.50;;;16.30;99.90;;;;;;4936544;28;20419;-88
2023/08/03 00:23:16;;;;;;;11.60;4.07;;;16.20;99.90;;;;;;4953204;28;20435;-87
2023/08/03 00:25:42;;;;;;;9.10;3.60;;;16.50;99.90;;;;;;4936859;28;20412;-89
2023/08/03 00:28:07;;;;;;;9.32;3.72;;;16.20;99.90;;;;;;4936658;28;20990;-89
2023/08/03 00:30:33;;;;;;;7.90;3.55;;;16.60;99.90;;;;;;4953268;28;20444;-89
2023/08/03 00:32:59;;;;;;;8.80;3.40;;;16.20;99.90;;;;;;4952620;28;20474;-89
2023/08/03 00:35:24;;;;;;;7.95;3.20;;;16.20;99.90;;;;;;4937343;28;20916;-90
2023/08/03 00:37:51;;;;;;;7.90;3.23;;;16.40;99.90;;;;;;4936802;28;20416;-89
2023/08/03 00:40:17;;;;;;;8.73;3.22;;;16.80;99.90;;;;;;4937733;28;20895;-90
2023/08/03 00:42:43;;;;;;;9.38;3.30;;;16.30;99.90;;;;;;4937073;28;20440;-88
2023/08/03 00:45:11;;;;;;;8.03;3.80;;;16.20;99.90;;;;;;4937176;28;20424;-90
2023/08/03 00:47:38;;;;;;;10.30;3.93;;;16.60;99.90;;;;;;4937041;28;20420;-90
2023/08/03 00:50:04;;;;;;;9.93;4.68;;;16.20;99.90;;;;;;4936795;28;20442;-87
2023/08/03 00:52:31;;;;;;;8.50;4.15;;;16.30;99.90;;;;;;4937498;28;20503;-90
2023/08/03 00:54:57;;;;;;;11.47;4.20;;;16.30;99.90;;;;;;4936769;28;20418;-90
2023/08/03 00:57:23;;;;;;;8.80;4.28;;;16.30;99.90;;;;;;4937357;28;20412;-89
2023/08/03 00:59:48;;;;;;;9.90;3.78;;;16.40;99.90;;;;;;4936328;28;20784;-88
2023/08/03 01:02:14;;;;;;;11.00;4.47;;;16.40;99.90;;;;;;4937133;28;20464;-89
2023/08/03 01:04:40;;;;;;;8.50;4.20;;;16.30;99.90;;;;;;4936681;28;20440;-89
2023/08/03 01:07:06;;;;;;;11.10;4.97;;;16.30;99.90;;;;;;4936555;28;20510;-89
2023/08/03 01:09:31;;;;;;;11.13;5.20;;;16.60;99.90;;;;;;4937032;28;20963;-89
2023/08/03 01:11:57;;;;;;;8.57;4.70;;;16.40;99.90;;;;;;4935627;28;20459;-89
2023/08/03 01:14:23;;;;;;;11.43;5.77;;;16.40;99.90;;;;;;4952034;28;20416;-88
2023/08/03 01:16:49;;;;;;;14.15;6.93;;;16.30;99.90;;;;;;4936051;28;20409;-89
2023/08/03 01:19:16;;;;;;;14.33;7.40;;;16.30;99.90;;;;;;4936807;28;20952;-89
2023/08/03 01:21:43;;;;;;;14.63;8.02;;;16.30;99.90;;;;;;4936358;28;20412;-89
2023/08/03 01:24:09;;;;;;;11.48;5.45;;;16.70;99.90;;;;;;4936599;28;20498;-91
2023/08/03 01:26:35;;;;;;;13.38;7.20;;;16.50;99.90;;;;;;4936636;28;20475;-91
2023/08/03 01:29:00;;;;;;;9.53;6.57;;;16.40;99.90;;;;;;4936488;28;20424;-91
2023/08/03 01:31:27;;;;;;;10.73;4.93;;;16.40;99.90;;;;;;4952528;28;20606;-92
2023/08/03 01:33:53;;;;;;;13.15;6.65;;;16.30;99.90;;;;;;4935667;28;20419;-91
2023/08/03 01:36:19;;;;;;;12.48;7.63;;;16.40;99.90;;;;;;4937024;28;20851;-90
2023/08/03 01:38:52;;;;;;;8.70;4.83;;;16.70;99.90;;;;;;4936772;28;20408;-90
2023/08/03 01:41:18;;;;;;;9.85;5.20;;;16.30;99.90;;;;;;4936436;28;20420;-89
2023/08/03 01:43:43;;;;;;;6.87;4.03;;;16.50;99.90;;;;;;4935643;28;20451;-91
2023/08/03 01:46:09;;;;;;;6.88;3.95;;;16.30;99.90;;;;;;4936002;28;20479;-90
2023/08/03 01:48:34;;;;;;;6.50;4.57;;;16.40;99.90;;;;;;4936627;28;20815;-91
2023/08/03 01:51:00;;;;;;;6.90;4.00;;;16.40;99.90;;;;;;4951807;28;20504;-90
2023/08/03 01:53:26;;;;;;;7.97;4.50;;;16.40;99.90;;;;;;4936777;28;20510;-91
2023/08/03 01:55:51;;;;;;;7.43;4.10;;;16.40;99.90;;;;;;4935859;28;20764;-90
2023/08/03 01:58:17;;;;;;;7.55;4.22;;;16.50;99.90;;;;;;4936529;28;20412;-89
2023/08/03 02:00:42;;;;;;;7.43;4.20;;;16.40;99.90;;;;;;4936281;28;20422;-89
2023/08/03 02:03:08;;;;;;;10.25;5.63;;;16.60;99.90;;;;;;4936314;28;20954;-90
2023/08/03 02:05:34;;;;;;;9.50;5.17;;;16.30;99.90;;;;;;4935773;28;20950;-90
2023/08/03 02:07:59;;;;;;;7.20;4.70;;;16.50;99.90;;;;;;4936053;28;20420;-90
2023/08/03 02:10:25;;;;;;;11.57;6.60;;;16.80;99.90;;;;;;4936322;28;20931;-90
2023/08/03 02:12:51;;;;;;;12.50;6.97;;;16.50;99.90;;;;;;4935564;28;20412;-90
2023/08/03 02:15:17;;;;;;;9.23;5.32;;;16.50;99.90;;;;;;4936175;28;20503;-90
2023/08/03 02:17:43;;;;;;;14.43;6.37;;;16.50;99.90;;;;;;4951765;28;20427;-89
2023/08/03 02:20:10;;;;;;;5.25;4.65;;;16.50;99.90;;;;;;4952058;28;20412;-91
2023/08/03 02:22:36;;;;;;;7.63;5.22;;;16.50;99.90;;;;;;4935708;28;20414;-90
2023/08/03 02:25:02;;;;;;;13.53;6.80;;;16.50;99.90;;;;;;4935892;28;20413;-90
2023/08/03 02:27:27;;;;;;;8.68;5.57;;;16.50;99.90;;;;;;4935737;28;20452;-91
2023/08/03 02:29:53;;;;;;;9.17;6.40;;;16.80;99.90;;;;;;4935479;28;20487;-90
2023/08/03 02:32:21;;;;;;;11.50;5.57;;;16.50;99.90;;;;;;4936440;28;20411;-89
2023/08/03 02:34:47;;;;;;;7.75;5.20;;;16.50;99.90;;;;;;4935176;28;20645;-91
2023/08/03 02:37:13;;;;;;;11.50;6.63;;;16.50;99.90;;;;;;4935942;28;20404;-91
2023/08/03 02:39:38;;;;;;;8.80;5.80;;;16.40;99.90;;;;;;4935430;28;20907;-90
2023/08/03 02:42:05;;;;;;;9.07;6.32;;;16.50;99.90;;;;;;4935281;28;20431;-91
2023/08/03 02:44:31;;;;;;;11.30;6.72;;;16.40;99.90;;;;;;4935868;28;20408;-90
2023/08/03 02:46:57;;;;;;;17.20;9.20;;;16.50;99.90;;;;;;4935186;28;20404;-90
2023/08/03 02:49:23;;;;;;;15.38;8.80;;;16.50;99.90;;;;;;4935894;28;20501;-92
2023/08/03 02:51:48;;;;;;;16.80;9.13;;;16.60;99.90;;;;;;4950724;28;20499;-93
2023/08/03 02:54:14;;;;;;;22.50;10.80;;;16.80;99.90;;;;;;4935593;28;20540;-91
2023/08/03 02:56:40;;;;;;;18.10;9.73;;;16.50;99.90;;;;;;4936403;28;20941;-92
2023/08/03 02:59:05;;;;;;;18.23;8.77;;;16.50;99.90;;;;;;4939229;28;20427;-93
2023/08/03 03:01:31;;;;;;;11.03;8.20;;;16.50;99.90;;;;;;4939186;28;20412;-90
2023/08/03 03:03:57;;;;;;;17.73;9.47;;;16.50;99.90;;;;;;4938694;28;20870;-92
2023/08/03 03:06:22;;;;;;;15.25;8.63;;;16.80;99.90;;;;;;4954914;28;20801;-91
2023/08/03 03:08:48;;;;;;;19.50;10.17;;;16.80;99.90;;;;;;4938726;28;20412;-90
2023/08/03 03:11:14;;;;;;;21.77;10.85;;;16.50;99.90;;;;;;4939743;28;20491;-91
2023/08/03 03:13:39;;;;;;;15.07;9.17;;;16.50;99.90;;;;;;4938865;28;20404;-90
2023/08/03 03:16:05;;;;;;;14.73;9.23;;;16.40;99.90;;;;;;4939522;28;20451;-91
2023/08/03 03:18:30;;;;;;;20.70;9.77;;;16.50;99.90;;;;;;4955183;28;20420;-91
2023/08/03 03:20:56;;;;;;;18.23;10.30;;;16.50;99.90;;;;;;4938710;28;20408;-91
2023/08/03 03:23:22;;;;;;;16.60;9.40;;;16.50;99.90;;;;;;4939355;28;20420;-91
2023/08/03 03:25:48;;;;;;;18.77;9.82;;;16.70;99.90;;;;;;4938566;28;20428;-90
2023/08/03 03:28:13;;;;;;;20.97;11.27;;;17.00;99.90;;;;;;4955447;28;20428;-90
2023/08/03 03:30:39;;;;;;;17.48;9.77;;;16.50;99.90;;;;;;4938199;28;20543;-90
2023/08/03 03:33:05;;;;;;;26.23;11.93;;;16.50;99.90;;;;;;4955053;28;20761;-91
2023/08/03 03:35:31;;;;;;;17.93;9.73;;;16.50;99.90;;;;;;4938846;28;20784;-92
2023/08/03 03:37:56;;;;;;;20.98;10.77;;;16.50;99.90;;;;;;4938879;28;20915;-91
2023/08/03 03:40:22;;;;;;;16.47;9.40;;;16.60;99.90;;;;;;4955086;28;20476;-90
2023/08/03 03:42:47;;;;;;;47.77;13.63;;;16.40;99.90;;;;;;4938562;28;20427;-91
2023/08/03 03:45:13;;;;;;;19.27;9.45;;;16.40;99.90;;;;;;4939452;28;20412;-91
2023/08/03 03:47:39;;;;;;;28.57;10.67;;;16.30;99.90;;;;;;4938040;28;20423;-90
2023/08/03 03:50:05;;;;;;;18.52;10.00;;;16.30;99.90;;;;;;4939052;28;20727;-91
2023/08/03 03:52:30;;;;;;;22.40;11.07;;;16.30;99.90;;;;;;4937974;28;20409;-92
2023/08/03 03:54:56;;;;;;;22.03;11.97;;;16.30;99.90;;;;;;4939376;28;20408;-92
2023/08/03 03:57:22;;;;;;;27.85;12.82;;;16.30;99.90;;;;;;4938837;28;20416;-90
2023/08/03 03:59:47;;;;;;;53.97;16.03;;;16.30;99.90;;;;;;4937772;28;20412;-90
2023/08/03 04:02:13;;;;;;;24.58;12.10;;;16.30;99.90;;;;;;4938296;28;20997;-91
2023/08/03 04:04:39;;;;;;;54.03;15.23;;;16.40;99.90;;;;;;4937372;28;20420;-89
2023/08/03 04:07:05;;;;;;;28.08;12.13;;;16.70;99.90;;;;;;4937986;28;20421;-91
2023/08/03 04:09:30;;;;;;;43.80;14.48;;;16.40;99.90;;;;;;4937985;28;20835;-91
2023/08/03 04:11:56;;;;;;;20.83;11.87;;;16.60;99.90;;;;;;4938386;28;20930;-91
2023/08/03 04:14:22;;;;;;;31.13;13.48;;;16.70;99.90;;;;;;4937764;28;20448;-90
2023/08/03 04:16:47;;;;;;;82.53;18.57;;;16.50;99.90;;;;;;4937818;28;20491;-93
2023/08/03 04:19:13;;;;;;;54.28;15.85;;;16.60;99.90;;;;;;4938286;28;20416;-91
2023/08/03 04:21:39;;;;;;;25.03;12.57;;;16.50;99.90;;;;;;4937056;28;20416;-91
2023/08/03 04:24:04;;;;;;;27.98;13.30;;;16.60;99.90;;;;;;4954360;28;20519;-90
2023/08/03 04:26:30;;;;;;;27.65;12.43;;;16.60;99.90;;;;;;4937576;28;20416;-92
2023/08/03 04:28:56;;;;;;;35.60;13.77;;;16.70;99.90;;;;;;4938227;28;20475;-91
2023/08/03 04:31:21;;;;;;;35.58;13.73;;;17.10;99.90;;;;;;4937291;28;20435;-90
2023/08/03 04:33:47;;;;;;;45.33;14.83;;;16.50;99.90;;;;;;4938020;28;20428;-90
2023/08/03 04:36:13;;;;;;;33.08;13.15;;;16.60;99.90;;;;;;4953529;28;20471;-89
2023/08/03 04:38:38;;;;;;;54.60;14.80;;;16.50;99.90;;;;;;4937550;28;20420;-91
2023/08/03 04:41:04;;;;;;;36.45;12.23;;;16.50;99.90;;;;;;4938150;28;20448;-90
2023/08/03 04:43:30;;;;;;;43.90;13.20;;;16.50;99.90;;;;;;4937158;28;20944;-92
2023/08/03 04:45:55;;;;;;;50.45;14.18;;;16.50;99.90;;;;;;4937717;28;20516;-90
2023/08/03 04:48:21;;;;;;;44.20;13.70;;;16.30;99.90;;;;;;4936921;28;20419;-90
2023/08/03 04:50:47;;;;;;;40.63;12.97;;;16.40;99.90;;;;;;4937777;28;20440;-91
2023/08/03 04:53:13;;;;;;;61.15;15.20;;;16.20;99.90;;;;;;4937565;28;20431;-91
2023/08/03 04:55:38;;;;;;;36.50;12.90;;;16.50;99.90;;;;;;4937385;28;20412;-90
2023/08/03 04:58:04;;;;;;;60.88;15.68;;;16.20;99.90;;;;;;4937398;28;20885;-92
2023/08/03 05:00:29;;;;;;;61.80;15.27;;;16.60;99.90;;;;;;4936902;28;20492;-90
2023/08/03 05:02:55;;;;;;;58.38;15.55;;;16.20;99.90;;;;;;4936806;28;20908;-91
2023/08/03 05:05:21;;;;;;;60.73;21.83;;;16.50;99.90;;;;;;4936792;28;20405;-91
2023/08/03 05:07:46;;;;;;;36.17;13.45;;;16.20;99.90;;;;;;4937477;28;20412;-91
2023/08/03 05:10:12;;;;;;;24.63;11.10;;;16.20;99.90;;;;;;4952043;28;20440;-91
2023/08/03 05:12:41;;;;;;;32.43;11.97;;;16.40;99.90;;;;;;4937382;28;20420;-90
2023/08/03 05:15:09;;;;;;;49.05;14.15;;;16.30;99.90;;;;;;4936213;28;20521;-91
2023/08/03 05:17:34;;;;;;;35.73;12.17;;;16.40;99.90;;;;;;4936966;28;20424;-90
2023/08/03 05:20:00;;;;;;;29.58;11.35;;;16.40;99.90;;;;;;4936181;28;20463;-91
2023/08/03 05:22:26;;;;;;;32.08;11.38;;;16.50;99.90;;;;;;4936890;28;20417;-90
2023/08/03 05:24:51;;;;;;;56.10;14.30;;;16.50;99.90;;;;;;4937186;28;20418;-90
2023/08/03 05:27:17;;;;;;;45.33;13.65;;;16.50;99.90;;;;;;4935162;28;20428;-90
2023/08/03 05:29:44;;;;;;;34.20;11.75;;;16.50;99.90;;;;;;4936310;28;20443;-90
2023/08/03 05:32:10;;;;;;;38.30;13.15;;;16.60;99.90;;;;;;4936295;28;20416;-89
2023/08/03 05:34:36;;;;;;;32.75;12.90;;;16.70;99.90;;;;;;4935917;28;20444;-91
2023/08/03 05:37:02;;;;;;;45.63;14.63;;;16.70;99.90;;;;;;4952669;28;20448;-90
2023/08/03 05:39:28;;;;;;;29.17;12.48;;;16.80;99.90;;;;;;4935922;28;20413;-89
2023/08/03 05:41:54;;;;;;;41.70;13.90;;;16.90;99.90;;;;;;4936372;28;20470;-90
2023/08/03 05:44:20;;;;;;;29.42;13.07;;;17.00;99.90;;;;;;4935225;28;20472;-90
2023/08/03 05:46:45;;;;;;;32.97;13.68;;;17.00;99.90;;;;;;4935883;28;20444;-90
2023/08/03 05:49:12;;;;;;;24.02;12.43;;;16.90;99.90;;;;;;4935687;28;20929;-89
2023/08/03 05:51:41;;;;;;;28.00;12.77;;;17.00;99.90;;;;;;4929743;28;20431;-90
2023/08/03 05:54:14;;;;;;;23.15;12.65;;;17.30;99.90;;;;;;4925402;28;20915;-89
2023/08/03 05:56:39;;;;;;;25.37;13.13;;;17.30;99.90;;;;;;4932171;28;20416;-91
2023/08/03 05:59:20;;;;;;;26.48;13.73;;;17.30;99.90;;;;;;4936300;28;20471;-91
2023/08/03 06:01:50;;;;;;;24.85;11.88;;;17.40;99.90;;;;;;4935864;28;20416;-90
2023/08/03 06:04:16;;;;;;;21.17;11.87;;;17.40;99.90;;;;;;4936786;28;20403;-90
2023/08/03 06:06:43;;;;;;;18.80;11.93;;;17.50;99.90;;;;;;4936032;28;20443;-90
2023/08/03 06:09:14;;;;;;;15.60;9.40;;;17.60;99.90;;;;;;4936474;28;20427;-90
2023/08/03 06:11:40;;;;;;;16.75;10.80;;;17.70;99.90;;;;;;4951791;28;20443;-90
2023/08/03 06:14:16;;;;;;;14.23;9.45;;;17.90;99.90;;;;;;4951518;28;20451;-90
2023/08/03 06:16:44;;;;;;;14.73;8.60;;;18.20;99.90;;;;;;4936578;28;20490;-90
2023/08/03 06:19:10;;;;;;;11.83;7.80;;;18.40;99.90;;;;;;4951609;28;20486;-90
2023/08/03 06:21:36;;;;;;;12.43;7.13;;;18.10;99.90;;;;;;4936381;28;20416;-91
2023/08/03 06:24:03;;;;;;;11.43;6.45;;;18.40;99.90;;;;;;4935595;28;20770;-90
2023/08/03 06:26:33;;;;;;;6.57;2.85;;;18.20;99.90;;;;;;4951911;28;21208;-90
2023/08/03 06:29:01;;;;;;;4.88;1.95;;;18.20;99.90;;;;;;4952017;28;20415;-90
2023/08/03 06:31:40;;;;;;;5.85;2.80;;;18.20;99.90;;;;;;4951014;28;20443;-91
2023/08/03 06:34:09;;;;;;;4.65;2.53;;;18.30;99.90;;;;;;4936380;28;20974;-90
2023/08/03 06:36:35;;;;;;;5.38;2.80;;;18.30;99.90;;;;;;4935520;28;20446;-91
2023/08/03 06:39:00;;;;;;;5.07;2.78;;;18.40;99.90;;;;;;4936231;28;20414;-91
2023/08/03 06:41:27;;;;;;;5.53;2.23;;;18.50;99.90;;;;;;4936056;28;20420;-90
2023/08/03 06:43:56;;;;;;;6.90;2.47;;;18.60;99.90;;;;;;4935689;28;20407;-89
2023/08/03 06:46:24;;;;;;;5.88;2.85;;;18.30;99.90;;;;;;4952126;28;20835;-90
2023/08/03 06:48:51;;;;;;;7.20;3.40;;;18.40;99.90;;;;;;4951359;28;20481;-90
2023/08/03 06:51:16;;;;;;;6.15;2.70;;;18.10;99.90;;;;;;4935674;28;20435;-90
2023/08/03 06:53:42;;;;;;;7.17;2.73;;;18.10;99.90;;;;;;4935302;28;20918;-91
2023/08/03 06:56:08;;;;;;;7.40;2.90;;;18.10;99.90;;;;;;4936057;28;20441;-90
2023/08/03 06:58:34;;;;;;;6.05;2.50;;;18.80;99.90;;;;;;4950486;28;21286;-89
2023/08/03 07:01:00;;;;;;;6.03;2.90;;;18.50;99.90;;;;;;4967622;28;20412;-89
2023/08/03 07:03:26;;;;;;;6.77;1.47;;;18.40;99.90;;;;;;4964885;28;20439;-89
2023/08/03 07:05:51;;;;;;;5.70;1.77;;;18.40;99.90;;;;;;4934332;28;20479;-90
2023/08/03 07:08:17;;;;;;;8.50;2.23;;;18.90;99.90;;;;;;4951652;28;20440;-90
2023/08/03 07:10:42;;;;;;;5.65;1.60;;;18.60;99.90;;;;;;4933385;28;20432;-88
2023/08/03 07:13:08;;;;;;;4.57;1.47;;;18.70;99.90;;;;;;4935808;28;20420;-89
2023/08/03 07:15:34;;;;;;;7.30;1.92;;;18.70;99.90;;;;;;4983119;28;20444;-88
2023/08/03 07:18:02;;;;;;;4.93;1.85;;;19.00;99.90;;;;;;4926514;29;20485;-90
2023/08/03 07:20:27;;;;;;;4.93;1.13;;;18.90;99.90;;;;;;4916524;29;20747;-90
2023/08/03 07:22:53;;;;;;;7.47;2.20;;;18.90;99.90;;;;;;4915125;29;20433;-90
2023/08/03 07:25:18;;;;;;;4.85;1.23;;;18.90;99.90;;;;;;4915821;29;20457;-89
2023/08/03 07:27:44;;;;;;;4.97;1.87;;;18.90;99.90;;;;;;4931291;29;20424;-90
2023/08/03 07:30:10;;;;;;;3.85;0.60;;;18.90;99.90;;;;;;4916544;29;20838;-90
2023/08/03 07:32:36;;;;;;;3.17;0.55;;;19.10;99.90;;;;;;4916069;29;20410;-89
2023/08/03 07:35:02;;;;;;;3.27;0.50;;;19.40;99.90;;;;;;4916011;29;20426;-90
2023/08/03 07:37:27;;;;;;;4.88;0.70;;;19.30;99.90;;;;;;4915326;29;20519;-88
2023/08/03 07:39:53;;;;;;;3.58;0.70;;;19.30;99.90;;;;;;4915367;29;20417;-89
2023/08/03 07:42:18;;;;;;;8.37;1.50;;;19.30;99.90;;;;;;4916668;29;20406;-89
2023/08/03 07:44:44;;;;;;;4.67;1.13;;;19.40;99.90;;;;;;4918176;29;20421;-89
2023/08/03 07:47:10;;;;;;;4.90;1.00;;;19.60;99.90;;;;;;4925869;28;20436;-88
2023/08/03 07:49:35;;;;;;;4.77;0.80;;;19.70;99.90;;;;;;4923698;28;20412;-89
2023/08/03 07:52:01;;;;;;;4.63;0.50;;;20.00;99.90;;;;;;4953357;28;20462;-88
2023/08/03 07:54:27;;;;;;;3.27;0.50;;;20.00;99.90;;;;;;4937008;28;20416;-88
2023/08/03 07:56:52;;;;;;;5.15;0.60;;;20.20;99.90;;;;;;4937732;28;20831;-90
2023/08/03 07:59:18;;;;;;;4.17;1.10;;;20.00;99.90;;;;;;4953864;28;20907;-89
2023/08/03 08:01:45;;;;;;;5.03;0.90;;;20.10;99.90;;;;;;4953511;28;20415;-91
2023/08/03 08:04:10;;;;;;;5.18;1.10;;;20.20;99.90;;;;;;4953658;28;20427;-88
2023/08/03 08:06:37;;;;;;;7.13;0.90;;;20.70;99.90;;;;;;4953273;28;20412;-90
2023/08/03 08:09:02;;;;;;;5.10;0.80;;;20.20;99.90;;;;;;4938058;28;20412;-90
2023/08/03 08:11:28;;;;;;;5.13;0.97;;;20.20;99.90;;;;;;4937145;28;20442;-89
2023/08/03 08:13:57;;;;;;;6.50;0.80;;;20.50;99.90;;;;;;4937581;28;20468;-88
2023/08/03 08:16:22;;;;;;;6.23;0.80;;;20.40;99.90;;;;;;4953514;28;20429;-87
2023/08/03 08:18:48;;;;;;;4.18;0.75;;;20.50;99.90;;;;;;4952643;28;20425;-88
2023/08/03 08:21:14;;;;;;;5.40;0.70;;;20.70;99.90;;;;;;4937628;28;20420;-89
2023/08/03 08:23:40;;;;;;;6.00;0.85;;;20.90;99.90;;;;;;4953059;28;20467;-91
2023/08/03 08:26:25;;;;;;;6.40;1.23;;;21.40;99.90;;;;;;4953875;28;20412;-88
2023/08/03 08:28:56;;;;;;;6.72;0.95;;;21.10;99.90;;;;;;4952559;28;20428;-89
2023/08/03 08:31:22;;;;;;;6.72;1.20;;;20.90;99.90;;;;;;4952963;28;20775;-91
2023/08/03 08:33:48;;;;;;;10.15;1.90;;;20.90;99.90;;;;;;4937163;28;20416;-90
2023/08/03 08:36:13;;;;;;;6.83;2.17;;;20.30;99.90;;;;;;4937467;28;20427;-88
2023/08/03 08:38:39;;;;;;;7.80;1.50;;;20.10;99.90;;;;;;4937735;28;20416;-90
2023/08/03 08:41:04;;;;;;;8.75;1.80;;;20.10;99.90;;;;;;4936512;28;20408;-89
2023/08/03 08:43:30;;;;;;;8.20;1.80;;;20.30;99.90;;;;;;4953103;28;20419;-91
2023/08/03 08:45:56;;;;;;;6.15;1.10;;;20.60;99.90;;;;;;4952764;28;20935;-90
2023/08/03 08:48:21;;;;;;;6.40;1.10;;;20.60;99.90;;;;;;4937400;28;20420;-90
2023/08/03 08:50:49;;;;;;;8.07;1.15;;;20.90;99.90;;;;;;4936688;28;20439;-89
2023/08/03 08:53:15;;;;;;;7.07;1.45;;;21.00;99.90;;;;;;4936862;28;20764;-89
2023/08/03 08:55:41;;;;;;;7.72;1.60;;;21.10;99.90;;;;;;4936943;28;20776;-90
2023/08/03 08:58:06;;;;;;;6.30;1.30;;;21.40;99.90;;;;;;4936869;28;20585;-92
2023/08/03 09:00:42;;;;;;;5.30;1.10;;;21.40;99.90;;;;;;4937309;28;20412;-91
2023/08/03 09:03:07;;;;;;;6.55;1.10;;;21.60;99.90;;;;;;4952838;28;20442;-89
2023/08/03 09:05:33;;;;;;;5.20;0.87;;;21.30;99.90;;;;;;4953302;28;21056;-91
2023/08/03 09:08:04;;;;;;;4.40;0.77;;;21.70;99.90;;;;;;4936876;28;20919;-91
2023/08/03 09:10:31;;;;;;;5.13;0.80;;;21.60;99.90;;;;;;4968812;28;20438;-90
2023/08/03 09:12:58;;;;;;;5.57;0.98;;;21.80;99.90;;;;;;4937334;28;20412;-90
2023/08/03 09:15:40;;;;;;;7.25;1.20;;;22.10;99.90;;;;;;4936987;28;20436;-92
2023/08/03 09:18:07;;;;;;;5.95;0.98;;;21.90;99.90;;;;;;4937647;28;20443;-92
2023/08/03 09:20:33;;;;;;;5.57;1.40;;;22.10;99.90;;;;;;4936264;28;20405;-89
2023/08/03 09:23:00;;;;;;;8.05;1.13;;;22.50;99.90;;;;;;4937273;28;20523;-90
2023/08/03 09:25:27;;;;;;;6.30;0.90;;;22.40;99.90;;;;;;4968681;28;20404;-89
2023/08/03 09:27:54;;;;;;;6.80;1.08;;;22.30;99.90;;;;;;4968436;28;20455;-92
2023/08/03 09:30:21;;;;;;;5.50;1.02;;;22.70;99.90;;;;;;4936389;28;20439;-90
2023/08/03 09:32:47;;;;;;;6.07;1.10;;;23.10;99.90;;;;;;4935866;28;20413;-90
2023/08/03 09:35:18;;;;;;;6.25;0.80;;;22.70;99.90;;;;;;4968414;28;20408;-89
2023/08/03 09:37:44;;;;;;;5.80;0.90;;;22.90;99.90;;;;;;4936199;28;20420;-90
2023/08/03 09:40:10;;;;;;;6.25;0.98;;;23.40;99.90;;;;;;4937053;28;20977;-91
2023/08/03 09:42:37;;;;;;;5.45;0.60;;;23.10;99.90;;;;;;4936643;28;20404;-91
2023/08/03 09:45:04;;;;;;;6.33;0.70;;;23.30;99.90;;;;;;4968337;28;20408;-91
2023/08/03 09:47:31;;;;;;;6.10;0.73;;;23.50;99.90;;;;;;4936377;28;20412;-92
2023/08/03 09:49:57;;;;;;;5.40;0.80;;;23.60;99.90;;;;;;4951915;28;20436;-93
2023/08/03 09:52:28;;;;;;;6.77;1.00;;;23.40;99.90;;;;;;4968499;28;20412;-94
2023/08/03 09:55:13;;;;;;;6.30;0.63;;;23.20;99.90;;;;;;4935952;28;20408;-91
2023/08/03 09:57:42;;;;;;;6.28;0.90;;;22.80;99.90;;;;;;4936268;28;20443;-93
2023/08/03 10:00:08;;;;;;;5.78;0.98;;;23.20;99.90;;;;;;4935206;28;20417;-92
2023/08/03 10:03:07;;;;;;;6.55;0.65;;;23.00;99.90;;;;;;4935275;28;20866;-92
2023/08/03 10:05:40;;;;;;;6.25;0.60;;;22.70;99.90;;;;;;4925740;29;20430;-93
2023/08/03 10:08:10;;;;;;;7.35;0.75;;;22.30;99.90;;;;;;4933000;29;20497;-89
2023/08/03 10:10:40;;;;;;;4.65;0.60;;;22.00;99.90;;;;;;4932790;29;20560;-92
2023/08/03 10:13:06;;;;;;;5.47;0.60;;;22.20;99.90;;;;;;4933177;29;20410;-93
2023/08/03 10:15:32;;;;;;;3.75;0.50;;;22.20;99.90;;;;;;4931818;29;20426;-92
2023/08/03 10:17:58;;;;;;;4.85;0.60;;;22.50;99.90;;;;;;4933302;29;20410;-94
2023/08/03 10:20:25;;;;;;;3.33;0.30;;;22.50;99.90;;;;;;4932333;29;20420;-91
2023/08/03 10:23:11;;;;;;;4.68;0.50;;;22.60;99.90;;;;;;4933337;29;20469;-92
2023/08/03 10:25:53;;;;;;;4.82;0.30;;;22.40;99.90;;;;;;4932695;29;20940;-92
2023/08/03 10:28:21;;;;;;;4.40;0.30;;;22.10;99.90;;;;;;4931670;29;20413;-95
2023/08/03 10:31:16;;;;;;;4.25;0.40;;;22.10;99.90;;;;;;4931989;29;20446;-91
2023/08/03 10:33:49;;;;;;;3.63;0.30;;;22.60;99.90;;;;;;4932000;29;20516;-92
2023/08/03 10:36:35;;;;;;;5.23;0.60;;;23.10;99.90;;;;;;4933311;29;20466;-91
2023/08/03 10:39:02;;;;;;;2.58;0.28;;;23.30;99.90;;;;;;4932821;29;20822;-93
2023/08/03 10:41:38;;;;;;;3.53;0.20;;;23.30;99.90;;;;;;4932091;29;20916;-94
2023/08/03 10:44:12;;;;;;;3.47;0.37;;;23.10;99.90;;;;;;4932735;29;20421;-92
2023/08/03 10:46:47;;;;;;;2.47;0.20;;;22.90;99.90;;;;;;4932696;29;20414;-90
2023/08/03 10:49:20;;;;;;;3.28;0.30;;;22.70;99.90;;;;;;4932920;29;20421;-91
2023/08/03 10:51:52;;;;;;;3.30;0.20;;;22.50;99.90;;;;;;4932519;29;20451;-93
2023/08/03 10:54:20;;;;;;;3.45;0.40;;;22.50;99.90;;;;;;4932132;29;20971;-93
2023/08/03 10:57:02;;;;;;;3.75;0.30;;;23.00;99.90;;;;;;4933068;29;20493;-92
2023/08/03 10:59:28;;;;;;;3.23;0.33;;;22.70;99.90;;;;;;4931787;29;20752;-93
2023/08/03 11:01:54;;;;;;;2.67;0.30;;;22.80;99.90;;;;;;4932472;29;20485;-94
2023/08/03 11:04:23;;;;;;;2.90;0.30;;;22.70;99.90;;;;;;4932165;29;20421;-91
2023/08/03 11:06:51;;;;;;;3.42;0.30;;;22.90;99.90;;;;;;4932251;29;20925;-94
2023/08/03 11:09:17;;;;;;;2.83;0.20;;;22.60;99.90;;;;;;4932495;29;20476;-92
2023/08/03 11:11:46;;;;;;;1.63;0.20;;;22.50;99.90;;;;;;4932023;29;20532;-92
2023/08/03 11:14:14;;;;;;;3.47;0.30;;;22.50;99.90;;;;;;4931798;29;20417;-93
2023/08/03 11:16:40;;;;;;;2.55;0.20;;;22.60;99.90;;;;;;4932391;29;20552;-92
2023/08/03 11:19:06;;;;;;;3.75;0.30;;;22.50;99.90;;;;;;4936714;29;20465;-93
2023/08/03 11:21:31;;;;;;;2.57;0.20;;;23.10;99.90;;;;;;4936205;29;20414;-93
2023/08/03 11:23:57;;;;;;;2.95;0.22;;;23.30;99.90;;;;;;4936310;29;20422;-91
2023/08/03 11:26:24;;;;;;;3.00;0.40;;;23.30;99.90;;;;;;4935979;29;20406;-93
2023/08/03 11:28:50;;;;;;;4.00;0.52;;;23.20;99.90;;;;;;4934437;29;20430;-93
2023/08/03 11:31:16;;;;;;;2.97;0.30;;;23.20;99.90;;;;;;4935836;29;20441;-92
2023/08/03 11:33:48;;;;;;;3.73;0.40;;;23.10;99.90;;;;;;4935202;29;20421;-93
2023/08/03 11:36:16;;;;;;;2.63;0.38;;;23.50;99.90;;;;;;4936112;29;20449;-93
2023/08/03 11:38:41;;;;;;;3.60;0.50;;;24.00;99.90;;;;;;4935251;29;20406;-92
2023/08/03 11:41:07;;;;;;;5.20;0.80;;;23.90;99.90;;;;;;4936171;29;20527;-91
2023/08/03 11:43:33;;;;;;;4.13;0.75;;;24.10;99.90;;;;;;4935582;29;20421;-92
2023/08/03 11:45:59;;;;;;;5.90;0.60;;;24.50;99.90;;;;;;4935282;29;20945;-92
2023/08/03 11:48:26;;;;;;;3.78;0.57;;;24.40;98.00;;;;;;4935375;29;20413;-89
2023/08/03 11:50:55;;;;;;;4.95;0.82;;;24.10;99.90;;;;;;4934703;29;20444;-91
2023/08/03 11:53:29;;;;;;;4.60;0.50;;;23.70;99.90;;;;;;4935237;29;20420;-90
2023/08/03 11:55:59;;;;;;;4.38;0.70;;;23.90;99.90;;;;;;4934670;29;21107;-90
2023/08/03 11:58:28;;;;;;;5.30;0.50;;;23.90;99.90;;;;;;4934837;29;20417;-91
2023/08/03 12:01:02;;;;;;;5.95;0.80;;;23.70;99.90;;;;;;4935093;29;20430;-92
2023/08/03 12:03:31;;;;;;;6.40;0.90;;;23.40;99.90;;;;;;4930579;29;21093;-92
2023/08/03 12:06:09;;;;;;;5.87;0.80;;;23.50;99.90;;;;;;4934542;29;20991;-90
2023/08/03 12:08:43;;;;;;;4.93;0.60;;;23.60;99.90;;;;;;4934877;29;21109;-91
2023/08/03 12:11:09;;;;;;;5.40;0.73;;;23.60;99.90;;;;;;4935192;29;20446;-91
2023/08/03 12:13:35;;;;;;;5.07;0.80;;;23.30;99.90;;;;;;4934778;29;20414;-92
2023/08/03 12:16:02;;;;;;;7.32;1.60;;;23.10;99.90;;;;;;4934426;29;20448;-91
2023/08/03 12:18:28;;;;;;;4.85;0.57;;;22.90;99.90;;;;;;4918999;29;20417;-91
2023/08/03 12:20:54;;;;;;;4.68;0.40;;;22.80;99.90;;;;;;4934368;29;20897;-93
2023/08/03 12:23:21;;;;;;;5.23;0.60;;;23.40;99.90;;;;;;4919227;29;20481;-92
2023/08/03 12:25:47;;;;;;;4.35;0.80;;;23.40;99.90;;;;;;4934309;29;20465;-90
2023/08/03 12:28:13;;;;;;;3.40;0.40;;;23.90;99.90;;;;;;4934262;29;20418;-91
2023/08/03 12:30:39;;;;;;;5.20;0.70;;;24.00;99.90;;;;;;4934248;29;20421;-90
2023/08/03 12:33:07;;;;;;;4.07;0.75;;;23.90;99.90;;;;;;4934777;29;20777;-89
2023/08/03 12:35:33;;;;;;;6.72;1.10;;;23.20;99.90;;;;;;4933705;29;20406;-90
2023/08/03 12:37:59;;;;;;;9.18;1.40;;;22.40;99.90;;;;;;4932922;29;20460;-89
2023/08/03 12:40:25;;;;;;;8.23;1.80;;;21.90;99.90;;;;;;4933589;29;20426;-90